Time;durP1;ratioP1;P1;durP2;ratioP2;P2;SDS_P1;SDS_P2;PMS_P1;PMS_P2;Temp;Humidity;BMP_temperature;BMP_pressure;BME280_temperature;BME280_humidity;BME280_pressure;Samples;Min_cycle;Max_cycle;Signal;HPM_P1;HPM_P2
2021/01/15 00:01:08;;;;;;;10.45;5.72;;;;;;;;;;5008891;28;20049;-83
2021/01/15 00:03:34;;;;;;;9.13;5.03;;;;;;;;;;5008890;28;20029;-83
2021/01/15 00:06:05;;;;;;;11.23;6.43;;;;;;;;;;5008953;28;20022;-83
2021/01/15 00:08:30;;;;;;;18.02;7.03;;;;;;;;;;5008773;28;20018;-83
2021/01/15 00:10:55;;;;;;;11.90;6.13;;;;;;;;;;5008614;28;20077;-83
2021/01/15 00:13:20;;;;;;;15.52;5.50;;;;;;;;;;5008535;28;20075;-83
2021/01/15 00:15:46;;;;;;;12.43;5.60;;;;;;;;;;5008918;28;20022;-83
2021/01/15 00:18:11;;;;;;;9.27;4.90;;;;;;;;;;4993517;28;20053;-83
2021/01/15 00:20:36;;;;;;;10.93;5.60;;;;;;;;;;5007885;28;20033;-84
2021/01/15 00:23:01;;;;;;;12.63;6.88;;;;;;;;;;4993374;28;20397;-83
2021/01/15 00:25:26;;;;;;;14.07;5.43;;;;;;;;;;5008484;28;20014;-83
2021/01/15 00:27:51;;;;;;;13.32;7.00;;;;;;;;;;5003540;28;20030;-83
2021/01/15 00:30:17;;;;;;;10.85;5.38;;;;;;;;;;4990799;28;20474;-83
2021/01/15 00:32:42;;;;;;;8.55;4.47;;;;;;;;;;5008535;28;20022;-83
2021/01/15 00:35:08;;;;;;;9.77;5.55;;;;;;;;;;5008482;28;20022;-83
2021/01/15 00:37:33;;;;;;;8.20;4.97;;;;;;;;;;5008034;28;20160;-83
2021/01/15 00:39:59;;;;;;;13.25;7.03;;;;;;;;;;5008892;28;20026;-83
2021/01/15 00:42:24;;;;;;;9.80;5.38;;;;;;;;;;5008205;28;20109;-83
2021/01/15 00:44:49;;;;;;;9.82;4.88;;;;;;;;;;5008456;28;20105;-83
2021/01/15 00:47:14;;;;;;;12.83;5.47;;;;;;;;;;5007692;28;20060;-84
2021/01/15 00:49:40;;;;;;;9.68;4.97;;;;;;;;;;5008259;28;20340;-83
2021/01/15 00:52:05;;;;;;;13.88;5.22;;;;;;;;;;5008239;28;20026;-83
2021/01/15 00:54:30;;;;;;;11.70;6.00;;;;;;;;;;5008064;28;20054;-83
2021/01/15 00:56:59;;;;;;;8.63;4.47;;;;;;;;;;5008341;28;20129;-83
2021/01/15 00:59:24;;;;;;;10.73;5.07;;;;;;;;;;4992975;28;20048;-83
2021/01/15 01:01:49;;;;;;;11.50;5.20;;;;;;;;;;5007612;28;20117;-84
2021/01/15 01:04:15;;;;;;;10.65;5.05;;;;;;;;;;5007701;28;20033;-84
2021/01/15 01:06:40;;;;;;;10.00;5.45;;;;;;;;;;5008305;28;20458;-83
2021/01/15 01:09:07;;;;;;;11.63;5.05;;;;;;;;;;5008294;28;20077;-83
2021/01/15 01:11:32;;;;;;;9.20;5.13;;;;;;;;;;5008016;28;20049;-83
2021/01/15 01:13:57;;;;;;;9.60;4.97;;;;;;;;;;5007888;28;20053;-83
2021/01/15 01:16:24;;;;;;;8.50;4.27;;;;;;;;;;5005677;28;20192;-84
2021/01/15 01:18:49;;;;;;;9.30;4.82;;;;;;;;;;4990442;28;20473;-83
2021/01/15 01:21:15;;;;;;;10.83;5.00;;;;;;;;;;4990758;28;20046;-83
2021/01/15 01:23:40;;;;;;;10.73;4.82;;;;;;;;;;5005883;28;20330;-83
2021/01/15 01:26:06;;;;;;;10.57;5.53;;;;;;;;;;5006022;28;20471;-83
2021/01/15 01:28:31;;;;;;;10.40;5.57;;;;;;;;;;4989773;28;20022;-83
2021/01/15 01:30:57;;;;;;;10.70;6.07;;;;;;;;;;5006154;28;20030;-84
2021/01/15 01:33:22;;;;;;;11.40;6.40;;;;;;;;;;5006231;28;20084;-83
2021/01/15 01:35:48;;;;;;;12.47;6.40;;;;;;;;;;5005358;28;20058;-83
2021/01/15 01:38:13;;;;;;;13.27;7.37;;;;;;;;;;5004643;28;20117;-83
2021/01/15 01:40:38;;;;;;;14.10;6.73;;;;;;;;;;5005852;28;20030;-82
2021/01/15 01:43:03;;;;;;;11.53;6.70;;;;;;;;;;4992666;28;20015;-82
2021/01/15 01:45:29;;;;;;;12.20;5.80;;;;;;;;;;5007261;28;20764;-83
2021/01/15 01:47:54;;;;;;;18.20;8.07;;;;;;;;;;5007384;28;20557;-83
2021/01/15 01:50:19;;;;;;;12.03;7.43;;;;;;;;;;5006655;28;20038;-83
2021/01/15 01:52:45;;;;;;;12.60;7.30;;;;;;;;;;5007045;28;20030;-83
2021/01/15 01:55:10;;;;;;;16.23;8.87;;;;;;;;;;5007296;28;20477;-83
2021/01/15 01:57:35;;;;;;;13.83;7.80;;;;;;;;;;5006855;28;20022;-84
2021/01/15 02:00:01;;;;;;;14.60;8.47;;;;;;;;;;5007248;28;20019;-83
2021/01/15 02:02:26;;;;;;;18.03;8.10;;;;;;;;;;5006856;28;20367;-83
2021/01/15 02:04:51;;;;;;;17.23;9.10;;;;;;;;;;4992979;28;20315;-83
2021/01/15 02:07:17;;;;;;;17.07;8.63;;;;;;;;;;5007173;28;20029;-83
2021/01/15 02:09:44;;;;;;;16.07;7.80;;;;;;;;;;5006907;28;20022;-83
2021/01/15 02:12:16;;;;;;;15.57;8.93;;;;;;;;;;5008220;28;20051;-83
2021/01/15 02:15:02;;;;;;;16.17;9.57;;;;;;;;;;5010862;28;20058;-84
2021/01/15 02:17:29;;;;;;;20.00;9.60;;;;;;;;;;4994272;28;20390;-83
2021/01/15 02:20:02;;;;;;;16.87;9.30;;;;;;;;;;5001133;28;20102;-83
2021/01/15 02:22:34;;;;;;;18.10;9.77;;;;;;;;;;5010728;28;20476;-83
2021/01/15 02:24:59;;;;;;;19.50;10.27;;;;;;;;;;4994330;28;20018;-83
2021/01/15 02:27:27;;;;;;;22.07;10.57;;;;;;;;;;4995185;28;20100;-83
2021/01/15 02:30:08;;;;;;;21.83;10.40;;;;;;;;;;4994345;28;20050;-83
2021/01/15 02:32:39;;;;;;;16.37;9.47;;;;;;;;;;5010809;28;20091;-83
2021/01/15 02:35:23;;;;;;;17.47;10.33;;;;;;;;;;5010891;28;20113;-83
2021/01/15 02:37:48;;;;;;;18.93;10.17;;;;;;;;;;5010391;28;20433;-82
2021/01/15 02:40:18;;;;;;;19.77;10.67;;;;;;;;;;5010378;28;20022;-83
2021/01/15 02:42:45;;;;;;;21.00;11.53;;;;;;;;;;5010544;28;20492;-83
2021/01/15 02:45:11;;;;;;;23.30;11.50;;;;;;;;;;5010613;28;20496;-83
2021/01/15 02:47:56;;;;;;;23.57;10.90;;;;;;;;;;5010200;28;20014;-83
2021/01/15 02:50:23;;;;;;;23.07;12.17;;;;;;;;;;5002696;28;20058;-83
2021/01/15 02:52:48;;;;;;;18.30;9.03;;;;;;;;;;5009927;28;20015;-83
2021/01/15 02:55:14;;;;;;;20.13;10.73;;;;;;;;;;5010383;28;20389;-83
2021/01/15 02:57:39;;;;;;;18.23;10.97;;;;;;;;;;5009585;28;20072;-83
2021/01/15 03:00:06;;;;;;;20.00;10.10;;;;;;;;;;5010453;28;20042;-83
2021/01/15 03:02:35;;;;;;;19.67;10.17;;;;;;;;;;5009870;28;20019;-84
2021/01/15 03:05:05;;;;;;;15.93;8.37;;;;;;;;;;5010045;28;20033;-83
2021/01/15 03:07:31;;;;;;;20.87;10.17;;;;;;;;;;5010224;28;20069;-83
2021/01/15 03:09:58;;;;;;;19.87;10.37;;;;;;;;;;5009595;28;20124;-83
2021/01/15 03:12:25;;;;;;;16.43;8.93;;;;;;;;;;5010051;28;20492;-83
2021/01/15 03:14:50;;;;;;;18.87;10.10;;;;;;;;;;5009707;28;20022;-83
2021/01/15 03:17:17;;;;;;;18.77;9.93;;;;;;;;;;5009804;28;20484;-83
2021/01/15 03:19:42;;;;;;;19.23;9.90;;;;;;;;;;5009209;28;20117;-83
2021/01/15 03:22:14;;;;;;;19.90;10.63;;;;;;;;;;5000163;28;20161;-83
2021/01/15 03:24:46;;;;;;;20.27;11.15;;;;;;;;;;4992907;28;20133;-82
2021/01/15 03:27:11;;;;;;;18.13;10.23;;;;;;;;;;5010050;28;20030;-83
2021/01/15 03:29:36;;;;;;;20.30;10.67;;;;;;;;;;4994673;28;20022;-83
2021/01/15 03:32:02;;;;;;;18.67;10.23;;;;;;;;;;5009350;28;20088;-82
2021/01/15 03:34:27;;;;;;;17.37;10.00;;;;;;;;;;5009422;28;20049;-83
2021/01/15 03:36:52;;;;;;;19.87;9.30;;;;;;;;;;4994772;28;20034;-83
2021/01/15 03:39:17;;;;;;;16.43;9.47;;;;;;;;;;5008258;28;20041;-83
2021/01/15 03:41:42;;;;;;;22.40;9.17;;;;;;;;;;5009698;28;20125;-83
2021/01/15 03:44:08;;;;;;;20.43;10.13;;;;;;;;;;5009498;28;20026;-83
2021/01/15 03:46:33;;;;;;;17.77;9.83;;;;;;;;;;5009094;28;20025;-83
2021/01/15 03:48:58;;;;;;;16.90;9.07;;;;;;;;;;5009160;28;20109;-83
2021/01/15 03:51:23;;;;;;;15.87;8.30;;;;;;;;;;5009040;28;20408;-83
2021/01/15 03:53:48;;;;;;;16.83;9.13;;;;;;;;;;5009263;28;20038;-82
2021/01/15 03:56:17;;;;;;;21.67;9.90;;;;;;;;;;4993800;28;20030;-83
2021/01/15 03:58:42;;;;;;;15.80;8.17;;;;;;;;;;4992926;28;20033;-83
2021/01/15 04:01:07;;;;;;;15.90;8.77;;;;;;;;;;5008877;28;20026;-83
2021/01/15 04:03:32;;;;;;;17.13;9.73;;;;;;;;;;5008919;28;20022;-83
2021/01/15 04:05:57;;;;;;;11.90;6.20;;;;;;;;;;5009075;28;20029;-83
2021/01/15 04:08:23;;;;;;;18.83;8.93;;;;;;;;;;5008722;28;20018;-83
2021/01/15 04:10:48;;;;;;;16.53;8.90;;;;;;;;;;5009360;28;20030;-83
2021/01/15 04:13:13;;;;;;;17.33;8.87;;;;;;;;;;5008924;28;20833;-82
2021/01/15 04:15:38;;;;;;;15.83;8.03;;;;;;;;;;5008960;28;20109;-83
2021/01/15 04:18:03;;;;;;;15.93;7.57;;;;;;;;;;4993467;28;20073;-83
2021/01/15 04:20:29;;;;;;;16.80;8.63;;;;;;;;;;4993526;28;20070;-83
2021/01/15 04:22:54;;;;;;;13.83;7.57;;;;;;;;;;5008815;28;20077;-82
2021/01/15 04:25:19;;;;;;;15.40;8.23;;;;;;;;;;5008560;28;20018;-82
2021/01/15 04:27:44;;;;;;;19.23;9.90;;;;;;;;;;5008453;28;20343;-82
2021/01/15 04:30:10;;;;;;;17.70;8.87;;;;;;;;;;4992813;28;20070;-83
2021/01/15 04:32:42;;;;;;;13.73;7.07;;;;;;;;;;5008259;28;20045;-82
2021/01/15 04:35:07;;;;;;;19.35;8.77;;;;;;;;;;4993323;28;20023;-83
2021/01/15 04:37:34;;;;;;;19.77;10.33;;;;;;;;;;5008291;28;20030;-82
2021/01/15 04:39:59;;;;;;;16.20;9.03;;;;;;;;;;5007939;28;20023;-82
2021/01/15 04:42:26;;;;;;;11.13;6.43;;;;;;;;;;4993310;28;20013;-83
2021/01/15 04:44:51;;;;;;;13.53;7.43;;;;;;;;;;5008122;28;20018;-83
2021/01/15 04:47:16;;;;;;;15.77;8.53;;;;;;;;;;5007947;28;20021;-83
2021/01/15 04:49:42;;;;;;;16.63;8.80;;;;;;;;;;5006284;28;20023;-82
2021/01/15 04:52:13;;;;;;;18.13;8.93;;;;;;;;;;4991527;28;20022;-82
2021/01/15 04:54:39;;;;;;;15.93;7.80;;;;;;;;;;5006279;28;20417;-82
2021/01/15 04:57:05;;;;;;;17.60;8.87;;;;;;;;;;5006391;28;20403;-83
2021/01/15 04:59:33;;;;;;;16.83;8.73;;;;;;;;;;5005866;28;20597;-83
2021/01/15 05:02:01;;;;;;;15.00;8.97;;;;;;;;;;4991493;28;20029;-82
2021/01/15 05:04:26;;;;;;;16.90;8.23;;;;;;;;;;5005310;28;20038;-82
2021/01/15 05:06:52;;;;;;;17.50;9.27;;;;;;;;;;5006483;28;20100;-82
2021/01/15 05:09:18;;;;;;;17.73;9.37;;;;;;;;;;5005022;28;20033;-83
2021/01/15 05:11:45;;;;;;;16.73;9.30;;;;;;;;;;5005755;28;20024;-83
2021/01/15 05:14:11;;;;;;;16.13;9.27;;;;;;;;;;5006350;28;20389;-82
2021/01/15 05:16:36;;;;;;;17.57;9.20;;;;;;;;;;5006151;28;20105;-82
2021/01/15 05:19:02;;;;;;;19.93;9.93;;;;;;;;;;4989970;28;20018;-82
2021/01/15 05:21:27;;;;;;;19.73;10.03;;;;;;;;;;5007629;28;20400;-82
2021/01/15 05:23:52;;;;;;;16.97;9.73;;;;;;;;;;5007806;28;20026;-82
2021/01/15 05:26:17;;;;;;;18.30;10.27;;;;;;;;;;5007353;28;20378;-82
2021/01/15 05:28:44;;;;;;;19.17;8.57;;;;;;;;;;4992589;28;20034;-83
2021/01/15 05:31:09;;;;;;;16.23;8.47;;;;;;;;;;5007573;28;20029;-82
2021/01/15 05:33:35;;;;;;;18.77;10.10;;;;;;;;;;5007404;28;20022;-82
2021/01/15 05:36:00;;;;;;;22.57;9.97;;;;;;;;;;5007328;28;20383;-82
2021/01/15 05:38:26;;;;;;;16.63;9.33;;;;;;;;;;5007176;28;20023;-82
2021/01/15 05:40:51;;;;;;;18.90;10.07;;;;;;;;;;4992267;28;20025;-82
2021/01/15 05:43:21;;;;;;;16.13;9.47;;;;;;;;;;5006886;28;20089;-82
2021/01/15 05:46:03;;;;;;;17.17;10.03;;;;;;;;;;5006684;28;20018;-82
2021/01/15 05:48:28;;;;;;;18.80;9.27;;;;;;;;;;5006412;28;20029;-82
2021/01/15 05:50:53;;;;;;;16.40;8.80;;;;;;;;;;5007071;28;20422;-82
2021/01/15 05:53:18;;;;;;;15.87;8.03;;;;;;;;;;5006970;28;20081;-83
2021/01/15 05:55:57;;;;;;;16.20;9.53;;;;;;;;;;5006969;28;20038;-83
2021/01/15 05:58:22;;;;;;;18.13;9.13;;;;;;;;;;5006740;28;20031;-82
2021/01/15 06:00:51;;;;;;;18.63;9.43;;;;;;;;;;5006400;28;20033;-82
2021/01/15 06:03:16;;;;;;;14.20;8.10;;;;;;;;;;5006432;28;20026;-82
2021/01/15 06:05:47;;;;;;;16.87;8.80;;;;;;;;;;5006805;28;20030;-82
2021/01/15 06:08:13;;;;;;;19.83;9.20;;;;;;;;;;5007014;28;20068;-82
2021/01/15 06:10:46;;;;;;;18.30;9.47;;;;;;;;;;5006901;28;20477;-82
2021/01/15 06:13:32;;;;;;;19.80;9.83;;;;;;;;;;5006501;28;20022;-82
2021/01/15 06:15:58;;;;;;;18.03;8.77;;;;;;;;;;5006856;28;20050;-83
2021/01/15 06:18:23;;;;;;;15.87;9.07;;;;;;;;;;4991760;28;20026;-82
2021/01/15 06:20:48;;;;;;;16.43;9.63;;;;;;;;;;5006755;28;20045;-82
2021/01/15 06:23:14;;;;;;;18.60;9.83;;;;;;;;;;5006878;28;20054;-82
2021/01/15 06:25:56;;;;;;;19.20;9.30;;;;;;;;;;5006710;28;20026;-82
2021/01/15 06:28:30;;;;;;;19.97;9.33;;;;;;;;;;5006105;28;20148;-82
2021/01/15 06:30:59;;;;;;;20.30;9.87;;;;;;;;;;5006324;28;20397;-82
2021/01/15 06:33:24;;;;;;;20.67;9.70;;;;;;;;;;5006779;28;20084;-82
2021/01/15 06:35:49;;;;;;;19.80;9.07;;;;;;;;;;5006641;28;20480;-82
2021/01/15 06:38:18;;;;;;;17.00;9.70;;;;;;;;;;5006196;28;20031;-83
2021/01/15 06:40:44;;;;;;;17.93;9.93;;;;;;;;;;5006534;28;20034;-82
2021/01/15 06:43:10;;;;;;;21.60;11.07;;;;;;;;;;5006617;28;20250;-82
2021/01/15 06:45:40;;;;;;;20.70;11.57;;;;;;;;;;4989980;28;20025;-83
2021/01/15 06:48:10;;;;;;;18.97;10.17;;;;;;;;;;4990924;28;20376;-83
2021/01/15 06:50:37;;;;;;;20.27;9.83;;;;;;;;;;4990929;28;20031;-82
2021/01/15 06:53:07;;;;;;;18.30;9.70;;;;;;;;;;5005934;28;20037;-82
2021/01/15 06:55:38;;;;;;;19.43;10.33;;;;;;;;;;5005884;28;20531;-81
2021/01/15 06:58:07;;;;;;;20.43;9.70;;;;;;;;;;5005964;28;20053;-82
2021/01/15 07:00:34;;;;;;;13.97;8.43;;;;;;;;;;5009596;28;20113;-82
2021/01/15 07:03:17;;;;;;;19.60;9.00;;;;;;;;;;5009614;28;20030;-82
2021/01/15 07:05:43;;;;;;;18.00;10.13;;;;;;;;;;5009877;28;20034;-82
2021/01/15 07:08:10;;;;;;;19.73;9.77;;;;;;;;;;5008728;28;20028;-82
2021/01/15 07:10:36;;;;;;;18.00;9.70;;;;;;;;;;4991955;28;20015;-82
2021/01/15 07:13:05;;;;;;;17.83;8.97;;;;;;;;;;4985145;28;20033;-82
2021/01/15 07:15:31;;;;;;;17.77;10.03;;;;;;;;;;4992969;28;20030;-82
2021/01/15 07:17:58;;;;;;;20.17;10.00;;;;;;;;;;4981778;28;20466;-82
2021/01/15 07:20:32;;;;;;;16.87;8.97;;;;;;;;;;4988568;28;20026;-82
2021/01/15 07:23:00;;;;;;;16.40;8.47;;;;;;;;;;5002958;28;20078;-82
2021/01/15 07:25:26;;;;;;;17.23;9.60;;;;;;;;;;5009666;28;20117;-82
2021/01/15 07:27:51;;;;;;;20.53;9.63;;;;;;;;;;5009269;28;20105;-82
2021/01/15 07:30:20;;;;;;;17.97;9.87;;;;;;;;;;5008840;28;20050;-82
2021/01/15 07:32:47;;;;;;;17.20;8.90;;;;;;;;;;5007487;28;20096;-82
2021/01/15 07:35:14;;;;;;;16.80;9.63;;;;;;;;;;4993639;28;20026;-82
2021/01/15 07:37:39;;;;;;;18.07;10.17;;;;;;;;;;5008990;28;20037;-83
2021/01/15 07:40:04;;;;;;;17.10;9.63;;;;;;;;;;5008973;28;20014;-82
2021/01/15 07:42:48;;;;;;;17.47;9.23;;;;;;;;;;5008131;28;20624;-82
2021/01/15 07:45:23;;;;;;;16.80;9.77;;;;;;;;;;4998231;28;20114;-82
2021/01/15 07:47:51;;;;;;;20.87;10.33;;;;;;;;;;4987407;28;20053;-82
2021/01/15 07:50:30;;;;;;;18.27;9.83;;;;;;;;;;4995811;28;20022;-83
2021/01/15 07:53:01;;;;;;;19.67;10.43;;;;;;;;;;4991513;28;20489;-82
2021/01/15 07:55:41;;;;;;;20.33;9.87;;;;;;;;;;5006399;28;20390;-82
2021/01/15 07:58:06;;;;;;;26.10;11.60;;;;;;;;;;5008150;28;20026;-82
2021/01/15 08:00:31;;;;;;;17.87;10.23;;;;;;;;;;4991238;28;20081;-83
2021/01/15 08:03:00;;;;;;;17.83;9.57;;;;;;;;;;5008473;28;20026;-83
2021/01/15 08:05:25;;;;;;;20.27;10.63;;;;;;;;;;5009370;28;20026;-83
2021/01/15 08:07:50;;;;;;;33.23;11.17;;;;;;;;;;5011143;28;20440;-83
2021/01/15 08:10:25;;;;;;;23.47;11.17;;;;;;;;;;4988812;28;20107;-82
2021/01/15 08:12:50;;;;;;;18.73;9.73;;;;;;;;;;5005392;28;20018;-83
2021/01/15 08:15:31;;;;;;;25.40;11.73;;;;;;;;;;5007997;28;20081;-83
2021/01/15 08:18:00;;;;;;;19.93;11.27;;;;;;;;;;4991314;28;20018;-82
2021/01/15 08:20:26;;;;;;;21.33;10.77;;;;;;;;;;4988791;28;20025;-83
2021/01/15 08:22:51;;;;;;;16.93;9.67;;;;;;;;;;4991193;28;20684;-82
2021/01/15 08:25:23;;;;;;;16.97;9.60;;;;;;;;;;5008293;28;20109;-83
2021/01/15 08:27:48;;;;;;;17.40;9.63;;;;;;;;;;5003275;28;20039;-83
2021/01/15 08:30:13;;;;;;;17.90;10.93;;;;;;;;;;4992242;28;20026;-83
2021/01/15 08:32:42;;;;;;;17.63;10.23;;;;;;;;;;5008986;28;20109;-83
2021/01/15 08:35:10;;;;;;;22.73;11.30;;;;;;;;;;4985779;28;20032;-82
2021/01/15 08:37:35;;;;;;;20.53;10.70;;;;;;;;;;5003792;28;20060;-83
2021/01/15 08:40:00;;;;;;;17.93;10.93;;;;;;;;;;4992042;28;20089;-83
2021/01/15 08:42:26;;;;;;;22.17;11.83;;;;;;;;;;5007905;28;20025;-84
2021/01/15 08:44:51;;;;;;;22.50;11.70;;;;;;;;;;4984432;28;20027;-83
2021/01/15 08:47:21;;;;;;;23.63;11.47;;;;;;;;;;5007441;28;20022;-83
2021/01/15 08:49:56;;;;;;;20.83;10.63;;;;;;;;;;4990326;28;20022;-83
2021/01/15 08:52:23;;;;;;;24.53;12.33;;;;;;;;;;4988303;28;20023;-82
2021/01/15 08:54:48;;;;;;;22.40;11.23;;;;;;;;;;5008248;28;20713;-81
2021/01/15 08:57:13;;;;;;;18.53;10.47;;;;;;;;;;5007427;28;20026;-81
2021/01/15 08:59:40;;;;;;;23.90;11.10;;;;;;;;;;5000460;28;20098;-82
2021/01/15 09:02:06;;;;;;;23.57;11.03;;;;;;;;;;5006027;28;20022;-82
2021/01/15 09:04:32;;;;;;;21.83;10.40;;;;;;;;;;4994558;28;20382;-82
2021/01/15 09:06:58;;;;;;;23.87;10.73;;;;;;;;;;4993253;28;20063;-82
2021/01/15 09:09:24;;;;;;;25.10;11.17;;;;;;;;;;5004479;28;20030;-82
2021/01/15 09:11:50;;;;;;;20.03;11.50;;;;;;;;;;4984597;28;20022;-83
2021/01/15 09:14:18;;;;;;;25.60;11.83;;;;;;;;;;4992420;28;20466;-82
2021/01/15 09:16:45;;;;;;;21.40;11.53;;;;;;;;;;4991730;28;20077;-82
2021/01/15 09:19:12;;;;;;;22.53;11.23;;;;;;;;;;5007343;28;20058;-82
2021/01/15 09:21:44;;;;;;;24.63;12.27;;;;;;;;;;5006003;28;20106;-82
2021/01/15 09:24:09;;;;;;;;;;;;;;;;;;4990632;28;20052;-83
2021/01/15 09:26:35;;;;;;;23.38;12.45;;;;;;;;;;5002456;28;19910;-82
2021/01/15 09:29:00;;;;;;;18.70;10.60;;;;;;;;;;4989333;28;20030;-82
2021/01/15 09:31:25;;;;;;;27.47;13.43;;;;;;;;;;4989972;28;20394;-82
2021/01/15 09:33:50;;;;;;;26.40;12.60;;;;;;;;;;4989568;28;20109;-83
2021/01/15 09:36:22;;;;;;;24.57;12.83;;;;;;;;;;4978874;28;20019;-83
2021/01/15 09:38:48;;;;;;;22.55;12.30;;;;;;;;;;5005164;28;20117;-82
2021/01/15 09:41:13;;;;;;;21.43;12.57;;;;;;;;;;5005866;28;20101;-82
2021/01/15 09:43:40;;;;;;;27.50;13.63;;;;;;;;;;4992394;28;20037;-83
2021/01/15 09:46:05;;;;;;;21.17;11.43;;;;;;;;;;5007154;28;20018;-82
2021/01/15 09:48:30;;;;;;;21.60;11.90;;;;;;;;;;4991028;28;20377;-83
2021/01/15 09:50:55;;;;;;;25.03;12.73;;;;;;;;;;4986586;28;20027;-84
2021/01/15 09:53:21;;;;;;;23.67;12.37;;;;;;;;;;5005309;28;20172;-82
2021/01/15 09:55:46;;;;;;;23.00;11.83;;;;;;;;;;5006168;28;20022;-82
2021/01/15 09:58:11;;;;;;;24.60;12.20;;;;;;;;;;5006854;28;20068;-83
2021/01/15 10:00:38;;;;;;;23.87;12.23;;;;;;;;;;4991009;28;20105;-83
2021/01/15 10:03:04;;;;;;;24.57;13.07;;;;;;;;;;5007551;28;20014;-83
2021/01/15 10:05:29;;;;;;;23.70;12.03;;;;;;;;;;4991861;28;20030;-82
2021/01/15 10:07:54;;;;;;;23.10;12.33;;;;;;;;;;5005141;28;20021;-83
2021/01/15 10:10:19;;;;;;;23.80;11.67;;;;;;;;;;4984763;28;20084;-84
2021/01/15 10:12:45;;;;;;;24.10;12.80;;;;;;;;;;4985345;28;20030;-84
2021/01/15 10:15:10;;;;;;;24.30;13.07;;;;;;;;;;5004927;28;20038;-83
2021/01/15 10:17:42;;;;;;;23.00;12.37;;;;;;;;;;4992245;28;20022;-83
2021/01/15 10:20:07;;;;;;;27.83;13.87;;;;;;;;;;4991597;28;20032;-83
2021/01/15 10:22:33;;;;;;;23.00;12.50;;;;;;;;;;5004743;28;20026;-84
2021/01/15 10:24:58;;;;;;;22.63;13.70;;;;;;;;;;5006424;28;20030;-82
2021/01/15 10:27:23;;;;;;;25.60;12.93;;;;;;;;;;4991686;28;20373;-82
2021/01/15 10:29:48;;;;;;;21.87;12.57;;;;;;;;;;5006684;28;20022;-83
2021/01/15 10:32:13;;;;;;;24.10;11.87;;;;;;;;;;4986625;28;20389;-82
2021/01/15 10:34:38;;;;;;;23.13;12.20;;;;;;;;;;5009284;28;20018;-83
2021/01/15 10:37:04;;;;;;;25.47;12.37;;;;;;;;;;5010030;28;20026;-83
2021/01/15 10:39:29;;;;;;;23.33;12.90;;;;;;;;;;5007059;28;20481;-82
2021/01/15 10:41:55;;;;;;;27.57;12.87;;;;;;;;;;5010881;28;20018;-83
2021/01/15 10:44:21;;;;;;;29.83;13.40;;;;;;;;;;4988981;28;20374;-83
2021/01/15 10:46:47;;;;;;;28.27;12.93;;;;;;;;;;4992689;28;20019;-82
2021/01/15 10:49:16;;;;;;;24.60;12.20;;;;;;;;;;5004407;28;20133;-82
2021/01/15 10:51:46;;;;;;;26.87;12.83;;;;;;;;;;4994380;28;20030;-82
2021/01/15 10:54:11;;;;;;;26.13;11.50;;;;;;;;;;5009551;28;20117;-81
2021/01/15 10:56:37;;;;;;;25.23;12.60;;;;;;;;;;5010090;28;20113;-82
2021/01/15 10:59:04;;;;;;;21.83;12.00;;;;;;;;;;5009447;28;20125;-82
2021/01/15 11:01:36;;;;;;;24.67;12.53;;;;;;;;;;5008756;28;20545;-82
2021/01/15 11:04:02;;;;;;;25.58;11.43;;;;;;;;;;4994711;28;21101;-81
2021/01/15 11:06:27;;;;;;;20.60;12.10;;;;;;;;;;5000554;28;20026;-82
2021/01/15 11:08:53;;;;;;;22.77;11.83;;;;;;;;;;4995620;28;20030;-82
2021/01/15 11:11:18;;;;;;;22.03;12.53;;;;;;;;;;5013879;28;20034;-83
2021/01/15 11:13:43;;;;;;;22.53;11.93;;;;;;;;;;5011206;28;20034;-83
2021/01/15 11:16:12;;;;;;;20.77;11.30;;;;;;;;;;4991685;28;20026;-83
2021/01/15 11:18:37;;;;;;;25.67;12.73;;;;;;;;;;5009633;28;20701;-83
2021/01/15 11:21:03;;;;;;;22.67;11.80;;;;;;;;;;4996936;28;20032;-83
2021/01/15 11:23:28;;;;;;;25.57;13.07;;;;;;;;;;5009340;28;20806;-83
2021/01/15 11:25:53;;;;;;;20.37;11.30;;;;;;;;;;4998188;28;20023;-82
2021/01/15 11:28:18;;;;;;;22.00;11.13;;;;;;;;;;5005650;28;20018;-82
2021/01/15 11:30:43;;;;;;;24.87;12.23;;;;;;;;;;5010252;28;20478;-81
2021/01/15 11:33:09;;;;;;;21.73;11.27;;;;;;;;;;4990055;28;20018;-83
2021/01/15 11:35:34;;;;;;;24.03;11.47;;;;;;;;;;5010368;28;20026;-83
2021/01/15 11:37:59;;;;;;;24.87;11.63;;;;;;;;;;4994655;28;20050;-84
2021/01/15 11:40:25;;;;;;;20.77;12.13;;;;;;;;;;4990147;28;20045;-83
2021/01/15 11:42:53;;;;;;;22.83;11.93;;;;;;;;;;5010390;28;20059;-82
2021/01/15 11:45:19;;;;;;;23.23;11.90;;;;;;;;;;4996358;28;20119;-82
2021/01/15 11:47:49;;;;;;;23.03;12.10;;;;;;;;;;4992001;28;20562;-82
2021/01/15 11:50:14;;;;;;;22.87;12.57;;;;;;;;;;5008206;28;20030;-82
2021/01/15 11:52:39;;;;;;;23.07;12.10;;;;;;;;;;4991473;28;20019;-83
2021/01/15 11:55:05;;;;;;;24.63;12.13;;;;;;;;;;4984715;28;20114;-82
2021/01/15 11:57:30;;;;;;;20.37;12.07;;;;;;;;;;4995520;28;20027;-83
2021/01/15 11:59:55;;;;;;;23.30;12.33;;;;;;;;;;5004943;28;20031;-82
2021/01/15 12:02:20;;;;;;;22.30;12.33;;;;;;;;;;5006535;28;20018;-83
2021/01/15 12:04:46;;;;;;;24.47;11.80;;;;;;;;;;5009753;28;20022;-82
2021/01/15 12:07:11;;;;;;;25.17;13.07;;;;;;;;;;5010188;28;20018;-83
2021/01/15 12:09:36;;;;;;;24.67;12.80;;;;;;;;;;5009975;28;20018;-82
2021/01/15 12:12:01;;;;;;;23.57;12.20;;;;;;;;;;5009683;28;20023;-83
2021/01/15 12:14:27;;;;;;;25.33;12.30;;;;;;;;;;4993107;28;20026;-83
2021/01/15 12:16:57;;;;;;;26.60;12.80;;;;;;;;;;5001390;28;21671;-83
2021/01/15 12:19:22;;;;;;;24.80;12.87;;;;;;;;;;5008451;28;20015;-83
2021/01/15 12:21:47;;;;;;;26.50;13.23;;;;;;;;;;5009135;28;20484;-83
2021/01/15 12:24:13;;;;;;;23.87;12.93;;;;;;;;;;4990027;28;20026;-84
2021/01/15 12:26:40;;;;;;;26.33;13.47;;;;;;;;;;4992347;28;20026;-83
2021/01/15 12:29:05;;;;;;;28.23;13.03;;;;;;;;;;4991987;28;20101;-83
2021/01/15 12:31:30;;;;;;;24.50;12.70;;;;;;;;;;4989273;28;20490;-83
2021/01/15 12:33:55;;;;;;;24.57;12.30;;;;;;;;;;5000318;28;20549;-83
2021/01/15 12:36:21;;;;;;;26.67;13.53;;;;;;;;;;4992310;28;20037;-83
2021/01/15 12:38:46;;;;;;;27.07;13.43;;;;;;;;;;5004662;28;20540;-83
2021/01/15 12:41:11;;;;;;;25.67;13.13;;;;;;;;;;5006116;28;20109;-82
2021/01/15 12:43:36;;;;;;;28.83;13.73;;;;;;;;;;5004727;28;20026;-83
2021/01/15 12:46:02;;;;;;;27.63;12.13;;;;;;;;;;4987482;28;20038;-83
2021/01/15 12:48:27;;;;;;;30.83;13.23;;;;;;;;;;4981461;28;20078;-82
2021/01/15 12:50:52;;;;;;;23.33;12.27;;;;;;;;;;5004444;28;20057;-82
2021/01/15 12:53:17;;;;;;;29.50;14.23;;;;;;;;;;5007013;28;20019;-83
2021/01/15 12:55:43;;;;;;;30.50;13.63;;;;;;;;;;4988494;28;20449;-83
2021/01/15 12:58:08;;;;;;;24.73;12.47;;;;;;;;;;5002179;28;20054;-83
2021/01/15 13:00:34;;;;;;;25.77;13.00;;;;;;;;;;4989849;28;20049;-83
2021/01/15 13:02:59;;;;;;;24.17;12.33;;;;;;;;;;5004542;28;20561;-83
2021/01/15 13:05:24;;;;;;;27.20;12.40;;;;;;;;;;4992291;28;20497;-84
2021/01/15 13:07:50;;;;;;;25.67;13.77;;;;;;;;;;5005242;28;20062;-83
2021/01/15 13:10:16;;;;;;;26.30;13.33;;;;;;;;;;5001704;28;20446;-83
2021/01/15 13:12:41;;;;;;;27.10;12.40;;;;;;;;;;4995981;28;20038;-84
2021/01/15 13:15:08;;;;;;;28.47;14.90;;;;;;;;;;4990069;28;20027;-83
2021/01/15 13:18:09;;;;;;;28.03;13.43;;;;;;;;;;5004932;28;20109;-83
2021/01/15 13:20:34;;;;;;;24.30;12.20;;;;;;;;;;4959088;28;20057;-83
2021/01/15 13:23:03;;;;;;;22.07;11.60;;;;;;;;;;4980360;28;20065;-84
2021/01/15 13:25:29;;;;;;;22.57;12.10;;;;;;;;;;4986055;28;20482;-83
2021/01/15 13:27:55;;;;;;;26.03;11.77;;;;;;;;;;4988579;28;20061;-83
2021/01/15 13:30:20;;;;;;;23.27;12.90;;;;;;;;;;5007859;28;20022;-83
2021/01/15 13:32:46;;;;;;;26.13;12.93;;;;;;;;;;5006357;28;20355;-84
2021/01/15 13:35:11;;;;;;;26.53;12.80;;;;;;;;;;4994630;28;20027;-83
2021/01/15 13:37:37;;;;;;;23.07;12.23;;;;;;;;;;4995630;28;20019;-83
2021/01/15 13:40:12;;;;;;;24.33;12.53;;;;;;;;;;4984675;28;20065;-84
2021/01/15 13:42:37;;;;;;;26.47;12.47;;;;;;;;;;4994148;28;20022;-83
2021/01/15 13:45:03;;;;;;;28.00;12.73;;;;;;;;;;4993864;28;20418;-83
2021/01/15 13:47:29;;;;;;;22.50;11.93;;;;;;;;;;4998793;28;20010;-83
2021/01/15 13:49:55;;;;;;;23.50;11.67;;;;;;;;;;4984941;28;20021;-83
2021/01/15 13:52:20;;;;;;;25.33;12.70;;;;;;;;;;4984856;28;20217;-84
2021/01/15 13:54:45;;;;;;;24.03;12.53;;;;;;;;;;5000672;28;20105;-85
2021/01/15 13:57:11;;;;;;;23.47;12.57;;;;;;;;;;5001452;28;20436;-83
2021/01/15 13:59:36;;;;;;;30.60;12.07;;;;;;;;;;4985783;28;20046;-83
2021/01/15 14:02:01;;;;;;;24.37;12.07;;;;;;;;;;4986795;28;20105;-84
2021/01/15 14:04:26;;;;;;;27.67;12.80;;;;;;;;;;5002797;28;20105;-83
2021/01/15 14:06:51;;;;;;;25.70;12.53;;;;;;;;;;4992761;28;20375;-82
2021/01/15 14:09:17;;;;;;;22.17;11.20;;;;;;;;;;4990312;28;20026;-83
2021/01/15 14:11:42;;;;;;;21.10;11.93;;;;;;;;;;4988199;28;20022;-82
2021/01/15 14:14:07;;;;;;;20.40;11.40;;;;;;;;;;5003674;28;20019;-82
2021/01/15 14:16:32;;;;;;;24.43;11.33;;;;;;;;;;4996706;28;20053;-82
2021/01/15 14:18:57;;;;;;;29.50;12.97;;;;;;;;;;4988388;28;21729;-83
2021/01/15 14:21:23;;;;;;;26.20;11.63;;;;;;;;;;4981349;28;20037;-83